Time;durP1;ratioP1;P1;durP2;ratioP2;P2;SDS_P1;SDS_P2;PMS_P1;PMS_P2;Temp;Humidity;BMP_temperature;BMP_pressure;BME280_temperature;BME280_humidity;BME280_pressure;Samples;Min_cycle;Max_cycle;Signal;HPM_P1;HPM_P2
2022/12/25 00:01:59;;;;;;;56.02;29.75;;;;;;;5.30;100.00;98206.97;1762207;81;21027;-79
2022/12/25 00:04:26;;;;;;;50.70;27.40;;;;;;;5.33;100.00;98208.35;1761925;81;21012;-78
2022/12/25 00:06:54;;;;;;;57.48;28.10;;;;;;;5.31;100.00;98214.50;1762149;81;21608;-79
2022/12/25 00:09:21;;;;;;;62.83;32.47;;;;;;;5.26;100.00;98209.03;1762149;81;21012;-80
2022/12/25 00:11:48;;;;;;;65.35;41.18;;;;;;;5.23;100.00;98213.02;1762254;81;20985;-78
2022/12/25 00:14:15;;;;;;;69.85;34.35;;;;;;;5.30;100.00;98208.31;1761950;81;20999;-78
2022/12/25 00:16:42;;;;;;;94.80;47.55;;;;;;;5.27;100.00;98208.78;1762112;81;21444;-78
2022/12/25 00:19:09;;;;;;;88.15;41.20;;;;;;;5.29;100.00;98212.03;1762018;81;21090;-79
2022/12/25 00:21:35;;;;;;;80.15;37.00;;;;;;;5.23;100.00;98221.61;1762183;81;20987;-80
2022/12/25 00:24:03;;;;;;;82.45;38.05;;;;;;;5.17;100.00;98226.06;1761910;81;21428;-78
2022/12/25 00:26:30;;;;;;;80.15;37.80;;;;;;;5.06;100.00;98226.40;1762127;81;21437;-79
2022/12/25 00:28:57;;;;;;;75.12;37.50;;;;;;;5.04;100.00;98227.67;1762091;81;20971;-80
2022/12/25 00:31:25;;;;;;;67.05;35.50;;;;;;;5.03;100.00;98224.70;1761869;81;21543;-79
2022/12/25 00:33:52;;;;;;;63.45;31.97;;;;;;;5.04;100.00;98229.02;1762139;81;21059;-78
2022/12/25 00:36:20;;;;;;;67.67;34.78;;;;;;;5.04;100.00;98239.75;1762303;81;21062;-78
2022/12/25 00:38:47;;;;;;;41.58;23.85;;;;;;;4.99;100.00;98243.17;1762257;81;21488;-80
2022/12/25 00:42:17;;;;;;;55.98;26.17;;;;;;;4.83;100.00;98239.07;1754864;81;21008;-79
2022/12/25 00:43:46;;;;;;;46.05;24.20;;;;;;;4.76;100.00;98230.61;1727468;82;21916;-79
2022/12/25 00:46:13;;;;;;;43.78;21.27;;;;;;;4.74;100.00;98239.44;1731645;82;21023;-80
2022/12/25 00:48:40;;;;;;;38.53;20.45;;;;;;;4.72;100.00;98250.13;1731884;82;21054;-79
2022/12/25 00:51:09;;;;;;;38.92;23.38;;;;;;;4.73;100.00;98260.63;1731792;82;20976;-80
2022/12/25 00:53:36;;;;;;;40.75;22.73;;;;;;;4.75;100.00;98265.75;1731844;82;21023;-79
2022/12/25 00:56:05;;;;;;;39.35;21.73;;;;;;;4.64;100.00;98271.97;1748173;81;21095;-78
2022/12/25 00:58:32;;;;;;;;;;;;;;;4.64;100.00;98277.33;1764777;81;21030;-78
2022/12/25 01:00:59;;;;;;;40.17;22.80;;;;;;;4.63;100.00;98281.89;1762050;81;20480;-79
2022/12/25 01:03:26;;;;;;;44.33;25.02;;;;;;;4.50;100.00;98282.11;1762100;81;20964;-78
2022/12/25 01:05:59;;;;;;;40.92;23.75;;;;;;;4.39;100.00;98284.28;1762186;81;21004;-78
2022/12/25 01:08:27;;;;;;;46.33;26.30;;;;;;;4.36;100.00;98281.55;1762066;81;21042;-80
2022/12/25 01:10:56;;;;;;;40.78;21.80;;;;;;;4.35;100.00;98280.42;1731789;81;21082;-78
2022/12/25 01:13:23;;;;;;;48.83;25.52;;;;;;;4.38;100.00;98288.84;1761668;81;21110;-79
2022/12/25 01:15:53;;;;;;;55.38;34.08;;;;;;;4.35;100.00;98290.62;1731982;81;20976;-80
2022/12/25 01:18:21;;;;;;;49.90;29.00;;;;;;;4.35;100.00;98289.81;1762228;81;21451;-78
2022/12/25 01:20:47;;;;;;;47.80;25.23;;;;;;;4.35;100.00;98300.54;1762256;81;21107;-79
2022/12/25 01:23:14;;;;;;;43.28;23.75;;;;;;;4.36;100.00;98292.78;1762047;81;21047;-78
2022/12/25 01:25:41;;;;;;;41.80;23.15;;;;;;;4.31;100.00;98304.22;1762157;81;21038;-79
2022/12/25 01:28:08;;;;;;;40.80;22.67;;;;;;;4.25;100.00;98309.17;1762306;81;21448;-78
2022/12/25 01:30:35;;;;;;;45.65;26.82;;;;;;;4.29;100.00;98314.38;1762084;81;21007;-79
2022/12/25 01:33:02;;;;;;;45.00;23.57;;;;;;;4.31;100.00;98318.98;1762354;81;21155;-78
2022/12/25 01:35:29;;;;;;;38.65;23.20;;;;;;;4.37;100.00;98321.27;1762157;81;20948;-79
2022/12/25 01:37:56;;;;;;;44.40;24.75;;;;;;;4.35;100.00;98312.09;1762133;81;21054;-79
2022/12/25 01:40:23;;;;;;;46.13;25.97;;;;;;;4.34;100.00;98315.83;1762218;81;21523;-79
2022/12/25 01:42:50;;;;;;;43.02;28.12;;;;;;;4.42;100.00;98317.34;1734996;81;21043;-78
2022/12/25 01:45:33;;;;;;;49.05;26.97;;;;;;;4.46;100.00;98330.08;1731860;82;21039;-79
2022/12/25 01:48:04;;;;;;;42.50;24.27;;;;;;;4.36;100.00;98331.19;1731929;82;20988;-78
2022/12/25 01:50:32;;;;;;;47.40;23.62;;;;;;;4.41;100.00;98331.81;1731730;82;21047;-78
2022/12/25 01:52:59;;;;;;;46.33;22.13;;;;;;;4.40;100.00;98331.53;1731966;82;21273;-78
2022/12/25 01:55:26;;;;;;;42.20;24.02;;;;;;;4.37;100.00;98324.77;1740361;81;20983;-78
2022/12/25 01:57:53;;;;;;;41.53;22.07;;;;;;;4.30;100.00;98326.74;1762149;81;21643;-79
2022/12/25 02:00:20;;;;;;;49.13;30.20;;;;;;;4.25;100.00;98326.08;1762184;81;20996;-79
2022/12/25 02:02:47;;;;;;;35.17;21.35;;;;;;;4.29;100.00;98335.02;1762315;81;21106;-80
2022/12/25 02:05:25;;;;;;;31.02;17.37;;;;;;;4.24;100.00;98337.86;1762171;81;21006;-78
2022/12/25 02:07:52;;;;;;;38.10;20.20;;;;;;;4.29;100.00;98339.05;1762386;81;21008;-78
2022/12/25 02:10:19;;;;;;;35.50;20.27;;;;;;;4.19;100.00;98338.28;1762146;81;21071;-79
2022/12/25 02:12:46;;;;;;;34.80;19.42;;;;;;;4.12;100.00;98338.91;1761893;81;21039;-79
2022/12/25 02:15:17;;;;;;;33.88;21.23;;;;;;;4.17;100.00;98347.06;1762195;81;21452;-78
2022/12/25 02:18:10;;;;;;;31.60;18.65;;;;;;;4.18;100.00;98359.42;1762207;81;21083;-78
2022/12/25 02:21:17;;;;;;;36.77;20.97;;;;;;;4.06;100.00;98346.00;1762062;81;20995;-79
2022/12/25 02:23:58;;;;;;;40.70;21.82;;;;;;;4.01;100.00;98349.06;1762221;81;21067;-78
2022/12/25 02:26:58;;;;;;;35.03;18.85;;;;;;;3.96;100.00;98343.06;1734215;81;20988;-79
2022/12/25 02:29:33;;;;;;;33.55;20.08;;;;;;;3.99;100.00;98344.45;1761964;81;20996;-79
2022/12/25 02:32:40;;;;;;;38.50;20.52;;;;;;;4.00;100.00;98341.54;1762106;81;21491;-78
2022/12/25 02:35:26;;;;;;;33.15;18.05;;;;;;;3.88;100.00;98351.42;1762109;81;21024;-79
2022/12/25 02:38:06;;;;;;;24.12;14.93;;;;;;;3.98;100.00;98356.23;1762451;81;21435;-79
2022/12/25 02:40:48;;;;;;;31.35;18.90;;;;;;;4.03;100.00;98355.03;1731700;81;20992;-80
2022/12/25 03:08:39;;;;;;;32.85;19.77;;;;;;;3.87;100.00;98362.67;1731747;82;21023;-79
2022/12/25 03:16:55;;;;;;;36.83;20.65;;;;;;;3.80;100.00;98364.63;1707024;82;21007;-79
2022/12/25 03:27:56;;;;;;;35.48;19.07;;;;;;;3.76;100.00;98367.98;1731695;82;21459;-79
2022/12/25 03:33:39;;;;;;;38.25;25.68;;;;;;;3.84;100.00;98358.28;1731785;82;21618;-79
2022/12/25 03:36:27;;;;;;;44.50;24.10;;;;;;;3.83;100.00;98366.84;1722779;82;20996;-78
2022/12/25 04:37:43;;;;;;;38.58;22.98;;;;;;;4.02;100.00;98421.27;1762339;81;21213;-79
2022/12/25 04:40:10;;;;;;;33.70;21.25;;;;;;;3.94;100.00;98422.39;1762609;81;20960;-80
2022/12/25 04:42:37;;;;;;;35.60;18.10;;;;;;;3.99;100.00;98427.58;1737309;81;21396;-78
2022/12/25 04:45:05;;;;;;;28.35;15.30;;;;;;;4.06;100.00;98428.31;1732146;82;20991;-79
2022/12/25 04:47:32;;;;;;;35.08;18.65;;;;;;;4.04;100.00;98423.70;1731699;82;21526;-79
2022/12/25 04:49:59;;;;;;;41.10;27.67;;;;;;;3.98;100.00;98429.45;1732129;82;21089;-79
2022/12/25 04:52:26;;;;;;;35.70;19.27;;;;;;;3.95;100.00;98432.07;1731844;82;21076;-78
2022/12/25 04:54:53;;;;;;;31.45;16.87;;;;;;;3.93;100.00;98431.98;1733913;81;21451;-78
2022/12/25 04:57:20;;;;;;;26.02;15.23;;;;;;;3.90;100.00;98434.60;1762087;81;20991;-79
2022/12/25 04:59:47;;;;;;;30.68;17.17;;;;;;;3.89;100.00;98436.98;1762247;81;21019;-78
2022/12/25 05:02:14;;;;;;;24.43;16.00;;;;;;;3.86;100.00;98440.66;1762199;81;21032;-79
2022/12/25 05:04:41;;;;;;;25.02;15.15;;;;;;;3.82;100.00;98439.45;1762160;81;21007;-78
2022/12/25 05:07:08;;;;;;;32.78;18.07;;;;;;;3.74;100.00;98441.92;1762261;81;21003;-78
2022/12/25 05:09:35;;;;;;;24.65;13.65;;;;;;;3.73;100.00;98443.49;1762092;81;21059;-80
2022/12/25 05:12:02;;;;;;;28.23;16.67;;;;;;;3.75;100.00;98440.06;1762182;81;21014;-78
2022/12/25 05:14:29;;;;;;;27.73;16.32;;;;;;;3.67;100.00;98428.63;1762217;81;21023;-80
2022/12/25 05:16:56;;;;;;;34.10;17.70;;;;;;;3.63;100.00;98429.28;1762240;81;21478;-79
2022/12/25 05:19:23;;;;;;;28.27;16.73;;;;;;;3.57;100.00;98432.33;1761939;81;21660;-78
2022/12/25 05:21:50;;;;;;;36.42;19.52;;;;;;;3.55;100.00;98432.27;1762158;81;21051;-78
2022/12/25 05:24:18;;;;;;;30.40;18.30;;;;;;;3.52;100.00;98431.39;1762067;81;21069;-79
2022/12/25 05:26:44;;;;;;;31.00;17.10;;;;;;;3.59;100.00;98428.93;1731870;81;21015;-78
2022/12/25 05:29:11;;;;;;;30.95;17.05;;;;;;;3.56;100.00;98424.52;1762168;81;20964;-78
2022/12/25 05:31:38;;;;;;;37.13;21.02;;;;;;;3.53;100.00;98438.37;1762188;81;21169;-79
2022/12/25 05:34:05;;;;;;;39.55;24.25;;;;;;;3.60;100.00;98447.16;1762008;81;20971;-79
2022/12/25 05:36:32;;;;;;;47.75;23.80;;;;;;;3.71;100.00;98453.10;1762201;81;21016;-79
2022/12/25 05:38:59;;;;;;;31.40;18.15;;;;;;;3.74;100.00;98456.66;1762134;81;21011;-79
2022/12/25 05:41:26;;;;;;;37.25;21.70;;;;;;;3.81;100.00;98460.09;1760961;81;21047;-79
2022/12/25 05:43:53;;;;;;;39.03;23.20;;;;;;;3.88;100.00;98467.53;1758682;81;21162;-78
2022/12/25 05:46:20;;;;;;;46.48;27.37;;;;;;;3.96;100.00;98473.11;1753444;81;21053;-78
2022/12/25 05:48:46;;;;;;;45.43;26.60;;;;;;;4.04;100.00;98462.59;1752801;81;21018;-80
2022/12/25 05:51:14;;;;;;;49.65;26.77;;;;;;;3.92;100.00;98471.91;1752408;81;20998;-78
2022/12/25 05:53:41;;;;;;;43.50;25.90;;;;;;;3.78;100.00;98473.14;1752474;81;21053;-78
2022/12/25 05:56:08;;;;;;;36.45;22.13;;;;;;;3.71;100.00;98477.23;1740613;81;20976;-78
2022/12/25 05:58:37;;;;;;;36.90;20.50;;;;;;;3.67;100.00;98478.70;1731863;82;21054;-79
2022/12/25 06:01:17;;;;;;;35.10;21.85;;;;;;;3.61;100.00;98480.95;1732152;82;21054;-78
2022/12/25 06:03:44;;;;;;;42.38;20.88;;;;;;;3.59;100.00;98485.70;1731737;82;21055;-80
2022/12/25 06:06:11;;;;;;;33.80;20.97;;;;;;;3.55;100.00;98484.00;1732070;82;21517;-78
2022/12/25 06:08:38;;;;;;;40.12;19.20;;;;;;;3.58;100.00;98486.75;1731816;82;20972;-78
2022/12/25 06:11:05;;;;;;;30.55;18.55;;;;;;;3.59;100.00;98484.36;1731917;82;21400;-80
2022/12/25 06:13:33;;;;;;;30.50;16.85;;;;;;;3.53;100.00;98485.27;1731899;82;21067;-78
2022/12/25 06:16:07;;;;;;;30.15;18.23;;;;;;;3.57;100.00;98480.56;1732010;82;21109;-79
2022/12/25 06:18:41;;;;;;;32.65;16.62;;;;;;;3.51;100.00;98488.19;1731700;82;20992;-78
2022/12/25 06:21:09;;;;;;;26.45;15.40;;;;;;;3.57;100.00;98489.95;1731634;82;21133;-80
2022/12/25 06:23:37;;;;;;;29.87;17.70;;;;;;;3.61;100.00;98486.32;1702204;82;40311;-79
2022/12/25 06:26:09;;;;;;;29.52;17.70;;;;;;;3.56;100.00;98489.66;1731697;82;21039;-80
2022/12/25 06:28:36;;;;;;;28.05;16.40;;;;;;;3.55;100.00;98496.06;1731168;82;21043;-79
2022/12/25 06:31:09;;;;;;;36.80;20.17;;;;;;;3.51;100.00;98503.44;1731780;82;21014;-78
2022/12/25 06:33:36;;;;;;;35.55;21.57;;;;;;;3.49;100.00;98512.20;1730485;82;21008;-79
2022/12/25 06:36:13;;;;;;;41.33;21.62;;;;;;;3.55;100.00;98508.64;1731882;82;21070;-78
2022/12/25 06:38:40;;;;;;;44.38;22.10;;;;;;;3.58;100.00;98517.04;1730780;82;21523;-80
2022/12/25 06:41:10;;;;;;;37.20;21.50;;;;;;;3.55;100.00;98528.73;1737623;81;20984;-79
2022/12/25 06:43:37;;;;;;;37.42;20.52;;;;;;;3.53;100.00;98514.75;1761988;81;21031;-79
2022/12/25 06:46:08;;;;;;;33.10;19.02;;;;;;;3.49;100.00;98526.41;1762150;81;21889;-79
2022/12/25 06:48:35;;;;;;;35.20;18.35;;;;;;;3.52;100.00;98534.03;1761933;81;21519;-78
2022/12/25 06:51:02;;;;;;;37.38;20.85;;;;;;;3.50;100.00;98529.91;1762312;81;21011;-79
2022/12/25 06:53:29;;;;;;;35.63;19.75;;;;;;;3.48;100.00;98538.70;1762145;81;21055;-79
2022/12/25 06:56:09;;;;;;;41.42;20.97;;;;;;;3.53;100.00;98545.05;1747599;81;21012;-79
2022/12/25 06:58:35;;;;;;;44.55;22.90;;;;;;;3.56;100.00;98544.59;1730191;82;21924;-80
2022/12/25 07:01:13;;;;;;;39.38;21.20;;;;;;;3.50;100.00;98554.84;1732068;82;21067;-78
2022/12/25 07:03:36;;;;;;;39.60;21.12;;;;;;;3.43;100.00;98551.95;1730772;82;21007;-79
2022/12/25 07:06:04;;;;;;;34.15;19.48;;;;;;;3.51;100.00;98550.33;1731906;82;21429;-80
2022/12/25 07:08:31;;;;;;;35.88;20.70;;;;;;;3.54;100.00;98548.02;1731577;82;21413;-79
2022/12/25 07:10:59;;;;;;;31.65;20.48;;;;;;;3.58;100.00;98553.74;1731916;82;21093;-78
2022/12/25 07:13:26;;;;;;;90.75;44.38;;;;;;;3.60;100.00;98557.86;1731604;82;20985;-79
2022/12/25 07:15:57;;;;;;;74.65;38.17;;;;;;;3.61;100.00;98572.90;1731967;82;21045;-78
2022/12/25 07:18:25;;;;;;;94.72;46.83;;;;;;;3.65;100.00;98566.56;1731582;82;20984;-78
2022/12/25 07:20:54;;;;;;;51.35;27.48;;;;;;;3.66;100.00;98570.36;1732136;82;21500;-80
2022/12/25 07:23:22;;;;;;;45.75;25.10;;;;;;;3.73;100.00;98580.20;1731886;82;21202;-80
2022/12/25 07:25:55;;;;;;;39.10;22.87;;;;;;;3.73;100.00;98586.90;1731822;82;21000;-78
2022/12/25 07:28:22;;;;;;;44.77;25.55;;;;;;;3.75;100.00;98591.52;1731665;82;21064;-79
2022/12/25 07:30:49;;;;;;;87.67;41.40;;;;;;;3.77;100.00;98592.95;1731910;82;21453;-78
2022/12/25 07:33:16;;;;;;;55.28;29.48;;;;;;;3.79;100.00;98592.72;1731690;82;21051;-78
2022/12/25 07:35:43;;;;;;;58.75;29.95;;;;;;;3.88;100.00;98610.16;1731940;82;21762;-80
2022/12/25 07:38:10;;;;;;;42.35;21.42;;;;;;;3.93;100.00;98621.02;1731679;82;20997;-78
2022/12/25 07:40:37;;;;;;;39.73;23.38;;;;;;;3.93;100.00;98621.02;1731894;82;21302;-79
2022/12/25 07:43:04;;;;;;;69.20;35.33;;;;;;;3.93;100.00;98623.20;1758458;81;20969;-80
2022/12/25 07:45:31;;;;;;;67.25;32.23;;;;;;;3.83;100.00;98621.53;1746826;82;21457;-80
2022/12/25 07:47:58;;;;;;;73.37;33.80;;;;;;;3.84;100.00;98623.69;1769393;81;21025;-78
2022/12/25 07:50:25;;;;;;;69.12;30.75;;;;;;;3.83;100.00;98620.71;1746854;82;21409;-78
2022/12/25 07:52:52;;;;;;;65.42;32.33;;;;;;;3.79;100.00;98621.69;1769382;81;21452;-80
2022/12/25 07:55:19;;;;;;;50.35;24.43;;;;;;;3.90;100.00;98620.13;1748313;81;21053;-79
2022/12/25 07:57:46;;;;;;;50.00;26.57;;;;;;;3.95;100.00;98622.45;1753061;81;21684;-79
2022/12/25 08:00:15;;;;;;;66.50;29.77;;;;;;;3.98;100.00;98626.55;1753284;81;21045;-78
2022/12/25 08:02:42;;;;;;;69.55;35.08;;;;;;;4.01;100.00;98619.91;1753049;81;21478;-78
2022/12/25 08:05:09;;;;;;;61.77;38.25;;;;;;;4.01;100.00;98618.56;1753265;81;21408;-78
2022/12/25 08:07:36;;;;;;;66.17;35.00;;;;;;;4.03;100.00;98617.33;1752962;81;21445;-79
2022/12/25 08:10:03;;;;;;;64.97;35.38;;;;;;;4.14;100.00;98615.75;1753119;81;21049;-79
2022/12/25 08:12:30;;;;;;;58.85;33.28;;;;;;;4.20;100.00;98613.53;1753092;81;20996;-79
2022/12/25 08:14:57;;;;;;;56.33;31.12;;;;;;;4.19;100.00;98612.71;1753330;81;20966;-78
2022/12/25 08:17:24;;;;;;;47.25;30.43;;;;;;;4.22;100.00;98618.95;1753188;80;21489;-78
2022/12/25 08:19:51;;;;;;;50.58;29.32;;;;;;;4.27;100.00;98622.30;1753271;81;20993;-80
2022/12/25 08:22:18;;;;;;;65.80;32.63;;;;;;;4.27;100.00;98631.69;1753124;81;21442;-78
2022/12/25 08:24:44;;;;;;;67.58;36.40;;;;;;;4.15;100.00;98624.91;1752842;81;21006;-78
2022/12/25 08:27:11;;;;;;;64.72;34.90;;;;;;;4.11;100.00;98624.27;1753093;81;21435;-79
2022/12/25 08:29:38;;;;;;;51.40;31.80;;;;;;;4.10;100.00;98625.27;1752990;81;21017;-80
2022/12/25 08:32:05;;;;;;;47.27;29.57;;;;;;;4.10;100.00;98627.47;1753049;81;20986;-79
2022/12/25 08:34:32;;;;;;;48.15;27.10;;;;;;;4.11;100.00;98625.08;1752959;81;21049;-79
2022/12/25 08:36:59;;;;;;;59.93;34.88;;;;;;;4.07;100.00;98627.89;1753206;81;21226;-79
2022/12/25 08:39:26;;;;;;;57.00;32.45;;;;;;;4.03;100.00;98629.39;1752803;81;21025;-79
2022/12/25 08:41:53;;;;;;;60.28;36.65;;;;;;;4.08;100.00;98631.39;1752306;81;21033;-78
2022/12/25 08:44:20;;;;;;;65.10;39.15;;;;;;;4.08;100.00;98624.69;1771885;81;22098;-79
2022/12/25 08:46:47;;;;;;;55.63;35.05;;;;;;;4.08;100.00;98621.48;1751570;82;21000;-79
2022/12/25 08:49:15;;;;;;;60.15;37.63;;;;;;;4.04;100.00;98622.16;1771914;81;21932;-79
2022/12/25 08:51:43;;;;;;;64.80;41.15;;;;;;;4.04;100.00;98622.98;1771987;81;20969;-78
2022/12/25 08:54:10;;;;;;;53.02;33.35;;;;;;;4.07;100.00;98619.84;1772027;81;20996;-78
2022/12/25 08:56:37;;;;;;;71.37;38.17;;;;;;;4.15;100.00;98623.57;1750556;81;21436;-80
2022/12/25 08:59:04;;;;;;;62.65;37.53;;;;;;;4.18;100.00;98623.12;1780864;80;21039;-79
2022/12/25 09:01:31;;;;;;;71.30;39.90;;;;;;;4.27;100.00;98611.56;1781197;80;20968;-78
2022/12/25 09:03:58;;;;;;;74.53;40.60;;;;;;;4.36;100.00;98610.73;1761903;81;21000;-79
2022/12/25 09:06:25;;;;;;;92.97;45.15;;;;;;;4.42;100.00;98617.89;1762234;81;20980;-79
2022/12/25 09:08:52;;;;;;;88.90;47.03;;;;;;;4.44;100.00;98623.35;1761828;81;21429;-79
2022/12/25 09:11:19;;;;;;;63.98;38.88;;;;;;;4.50;100.00;98628.32;1762328;81;21362;-78
2022/12/25 09:13:47;;;;;;;58.75;36.77;;;;;;;4.60;100.00;98638.00;1731727;81;21806;-79
2022/12/25 09:16:16;;;;;;;78.72;52.20;;;;;;;4.68;100.00;98636.34;1762094;81;21027;-80
2022/12/25 09:18:43;;;;;;;82.30;47.43;;;;;;;4.82;100.00;98645.05;1761995;81;21027;-78
2022/12/25 09:21:12;;;;;;;77.60;43.95;;;;;;;4.89;100.00;98639.60;1762331;81;21063;-79
2022/12/25 09:23:39;;;;;;;61.73;36.42;;;;;;;4.98;100.00;98648.97;1761994;81;21420;-80
2022/12/25 09:26:07;;;;;;;49.80;29.82;;;;;;;5.08;100.00;98638.48;1762321;81;21021;-80
2022/12/25 09:28:34;;;;;;;54.03;33.85;;;;;;;5.12;100.00;98630.25;1761956;81;20980;-78
2022/12/25 09:31:01;;;;;;;58.92;33.18;;;;;;;5.14;100.00;98630.86;1762298;81;21016;-80
2022/12/25 09:33:28;;;;;;;47.62;26.30;;;;;;;5.18;100.00;98629.87;1762016;81;20977;-79
2022/12/25 09:36:00;;;;;;;47.53;27.40;;;;;;;5.21;100.00;98626.22;1762314;81;21000;-80
2022/12/25 09:38:28;;;;;;;48.00;26.68;;;;;;;5.28;100.00;98630.94;1761837;81;21104;-78
2022/12/25 09:41:21;;;;;;;43.58;25.40;;;;;;;5.33;100.00;98635.11;1759123;81;21471;-80
2022/12/25 09:43:52;;;;;;;47.95;27.07;;;;;;;5.39;100.00;98638.75;1728512;82;21479;-80
2022/12/25 09:46:22;;;;;;;41.90;23.42;;;;;;;5.41;100.00;98642.02;1731108;82;20996;-78
2022/12/25 09:48:59;;;;;;;36.88;21.95;;;;;;;5.47;100.00;98645.14;1731613;82;21019;-80
2022/12/25 09:51:26;;;;;;;27.50;16.20;;;;;;;5.59;100.00;98649.17;1714076;82;21188;-80
2022/12/25 09:54:01;;;;;;;25.08;13.13;;;;;;;5.70;100.00;98642.98;1731621;82;21475;-80
2022/12/25 09:56:28;;;;;;;23.87;13.50;;;;;;;5.71;100.00;98651.86;1753292;81;20968;-80
2022/12/25 09:58:55;;;;;;;28.23;14.43;;;;;;;5.79;100.00;98647.48;1761943;81;21019;-78
2022/12/25 10:02:21;;;;;;;28.27;15.18;;;;;;;5.85;100.00;98651.41;1762330;81;21015;-80
2022/12/25 10:05:05;;;;;;;33.58;18.30;;;;;;;5.96;100.00;98657.05;1761574;81;21963;-80
2022/12/25 10:08:04;;;;;;;32.95;18.52;;;;;;;6.07;100.00;98647.65;1732955;81;21122;-79
2022/12/25 10:10:51;;;;;;;41.18;21.05;;;;;;;6.15;100.00;98651.83;1761671;81;20988;-80
2022/12/25 10:13:59;;;;;;;24.40;14.45;;;;;;;6.21;100.00;98648.20;1760545;81;20968;-80
2022/12/25 10:16:46;;;;;;;25.05;14.65;;;;;;;6.25;100.00;98645.88;1762211;81;21490;-78
2022/12/25 10:19:28;;;;;;;26.37;15.80;;;;;;;6.36;100.00;98647.72;1762053;81;21074;-79
2022/12/25 10:21:59;;;;;;;21.97;13.95;;;;;;;6.46;100.00;98645.23;1761739;81;20984;-80
2022/12/25 10:24:43;;;;;;;32.63;18.12;;;;;;;6.55;100.00;98634.38;1761946;81;21007;-79
2022/12/25 10:27:36;;;;;;;27.35;15.28;;;;;;;6.66;100.00;98642.94;1762244;81;21012;-79
2022/12/25 10:30:15;;;;;;;29.72;16.65;;;;;;;6.75;100.00;98635.30;1762085;81;21019;-80
2022/12/25 10:32:42;;;;;;;;;;;;;;;6.83;100.00;98628.72;1764724;81;21070;-80
2022/12/25 10:35:16;;;;;;;23.77;12.47;;;;;;;6.92;100.00;98621.88;1762197;81;20189;-80
2022/12/25 10:37:43;;;;;;;22.10;12.82;;;;;;;7.00;100.00;98625.00;1761989;81;21539;-79
2022/12/25 10:40:25;;;;;;;32.75;18.30;;;;;;;7.08;100.00;98618.41;1732422;81;20968;-79
2022/12/25 10:42:56;;;;;;;29.12;14.87;;;;;;;7.14;100.00;98623.38;1731705;81;21496;-80
2022/12/25 10:45:23;;;;;;;22.80;13.10;;;;;;;7.19;100.00;98626.17;1731873;82;21350;-78
2022/12/25 10:47:56;;;;;;;20.27;12.30;;;;;;;7.20;100.00;98621.87;1731780;82;21010;-78
2022/12/25 10:50:23;;;;;;;23.40;13.80;;;;;;;7.22;100.00;98621.09;1729537;82;21067;-78
2022/12/25 10:52:56;;;;;;;21.65;11.88;;;;;;;7.26;100.00;98628.16;1731793;82;21027;-80
2022/12/25 10:55:23;;;;;;;19.20;11.83;;;;;;;7.28;100.00;98624.70;1736635;81;21086;-80
2022/12/25 10:57:50;;;;;;;19.12;11.50;;;;;;;7.31;100.00;98615.59;1731991;82;21130;-80
2022/12/25 11:00:27;;;;;;;18.25;11.57;;;;;;;7.31;100.00;98609.38;1731906;82;20997;-80
2022/12/25 11:02:54;;;;;;;16.82;10.00;;;;;;;7.36;100.00;98610.83;1731796;82;21020;-79
2022/12/25 11:05:32;;;;;;;18.98;10.23;;;;;;;7.42;100.00;98606.31;1732224;82;20999;-79
2022/12/25 11:08:00;;;;;;;17.87;10.80;;;;;;;7.49;100.00;98608.33;1732056;82;21147;-80
2022/12/25 11:10:37;;;;;;;25.43;14.63;;;;;;;7.57;100.00;98596.59;1731868;82;21835;-78
2022/12/25 11:13:06;;;;;;;21.62;13.70;;;;;;;7.70;100.00;98594.64;1731641;82;21028;-80
2022/12/25 11:15:41;;;;;;;;;;;;;;;7.78;100.00;98584.25;1734528;82;21612;-80
2022/12/25 11:18:26;;;;;;;21.33;12.10;;;;;;;7.84;100.00;98582.42;1731865;82;20141;-79
2022/12/25 11:21:00;;;;;;;31.57;16.70;;;;;;;7.89;100.00;98581.97;1731858;82;21101;-79
2022/12/25 11:23:29;;;;;;;33.92;16.55;;;;;;;7.97;100.00;98574.52;1731697;82;21012;-79
2022/12/25 11:26:05;;;;;;;26.60;16.10;;;;;;;7.99;100.00;98569.14;1731946;82;21025;-79
2022/12/25 11:28:35;;;;;;;24.80;13.62;;;;;;;8.01;100.00;98562.95;1731536;82;21063;-80
2022/12/25 11:31:20;;;;;;;21.48;12.75;;;;;;;8.03;100.00;98564.05;1731875;82;21063;-80
2022/12/25 11:34:01;;;;;;;22.35;16.80;;;;;;;8.00;100.00;98559.16;1731727;82;21467;-79
2022/12/25 11:36:48;;;;;;;23.40;12.05;;;;;;;8.03;100.00;98558.66;1730178;82;21822;-79
2022/12/25 11:39:35;;;;;;;35.88;16.40;;;;;;;8.04;100.00;98570.58;1731677;82;21405;-79
2022/12/25 11:42:28;;;;;;;31.62;17.00;;;;;;;8.04;100.00;98573.27;1746981;81;21017;-80
2022/12/25 11:45:03;;;;;;;30.92;19.05;;;;;;;8.09;100.00;98577.91;1692945;84;21044;-79
2022/12/25 11:47:39;;;;;;;31.12;17.37;;;;;;;8.13;100.00;98574.47;1732927;82;20958;-80
2022/12/25 11:50:29;;;;;;;25.97;15.15;;;;;;;8.19;100.00;98575.33;1769135;81;21416;-81
2022/12/25 11:52:59;;;;;;;21.33;12.98;;;;;;;8.19;100.00;98563.19;1769318;81;21000;-79
2022/12/25 11:55:42;;;;;;;27.87;13.28;;;;;;;8.15;100.00;98555.32;1748447;81;21286;-80
2022/12/25 11:58:23;;;;;;;28.42;15.88;;;;;;;8.15;100.00;98555.32;1725932;80;21033;-80
2022/12/25 12:00:52;;;;;;;29.55;19.00;;;;;;;8.19;100.00;98556.44;1752409;81;21080;-80
2022/12/25 12:03:22;;;;;;;;;;;;;;;8.14;100.00;98536.95;1755496;81;20963;-80
2022/12/25 12:05:57;;;;;;;36.83;19.32;;;;;;;8.18;100.00;98544.01;1752966;81;20512;-79
2022/12/25 12:08:24;;;;;;;35.60;16.95;;;;;;;8.21;100.00;98543.52;1769330;81;20992;-79
2022/12/25 12:11:17;;;;;;;27.87;12.85;;;;;;;8.24;100.00;98547.59;1773983;80;20949;-80
2022/12/25 12:14:14;;;;;;;18.73;10.93;;;;;;;8.30;100.00;98545.25;1783943;80;20955;-80
2022/12/25 12:16:41;;;;;;;54.88;28.80;;;;;;;8.35;100.00;98555.59;1784181;80;21146;-78
2022/12/25 12:19:29;;;;;;;59.20;23.62;;;;;;;8.43;100.00;98556.49;1783776;79;21396;-80
2022/12/25 12:22:00;;;;;;;50.83;22.37;;;;;;;8.44;100.00;98558.66;1783298;80;21010;-79
2022/12/25 12:24:31;;;;;;;34.38;15.30;;;;;;;8.41;100.00;98553.23;1783709;80;21041;-79
2022/12/25 12:27:05;;;;;;;25.70;13.25;;;;;;;8.40;100.00;98560.25;1781735;80;21399;-80
2022/12/25 12:29:39;;;;;;;29.50;17.62;;;;;;;8.35;100.00;98553.42;1783988;80;20982;-79
2022/12/25 12:32:24;;;;;;;30.37;15.38;;;;;;;8.35;100.00;98553.42;1784169;80;21054;-80
2022/12/25 12:34:51;;;;;;;24.85;11.95;;;;;;;8.35;100.00;98549.38;1764539;80;20935;-80
2022/12/25 12:37:26;;;;;;;132.30;99.42;;;;;;;8.39;100.00;98541.88;1784286;80;20986;-80
2022/12/25 12:39:53;;;;;;;55.67;33.05;;;;;;;8.38;100.00;98546.19;1777908;80;20999;-80
2022/12/25 12:42:25;;;;;;;37.70;19.25;;;;;;;8.39;100.00;98549.17;1761674;79;21146;-80
2022/12/25 12:44:56;;;;;;;21.20;11.45;;;;;;;8.39;100.00;98547.28;1743516;81;21012;-80
2022/12/25 12:47:29;;;;;;;37.05;16.87;;;;;;;8.42;100.00;98545.41;1771996;81;21094;-79
2022/12/25 12:50:00;;;;;;;43.52;19.25;;;;;;;8.45;100.00;98542.73;1751315;82;20949;-80
2022/12/25 12:52:36;;;;;;;35.20;14.83;;;;;;;8.37;100.00;98539.94;1772308;81;20992;-80
2022/12/25 12:55:07;;;;;;;22.85;13.45;;;;;;;8.30;100.00;98538.50;1771764;81;21043;-79
2022/12/25 12:57:38;;;;;;;34.15;16.87;;;;;;;8.28;100.00;98532.52;1781007;80;21031;-80
2022/12/25 13:00:13;;;;;;;32.25;17.50;;;;;;;8.23;100.00;98529.77;1749828;81;21420;-79
2022/12/25 13:03:08;;;;;;;36.42;19.23;;;;;;;8.24;100.00;98532.75;1772311;80;20996;-79
2022/12/25 13:05:51;;;;;;;26.50;13.25;;;;;;;8.25;100.00;98528.98;1781133;80;21023;-80
2022/12/25 13:08:54;;;;;;;70.70;32.05;;;;;;;8.19;100.00;98537.53;1762083;81;21581;-79
2022/12/25 13:11:27;;;;;;;78.47;31.10;;;;;;;8.15;100.00;98535.08;1761556;81;21446;-81
2022/12/25 13:13:55;;;;;;;41.83;20.30;;;;;;;8.11;100.00;98527.18;1762133;81;21039;-80
2022/12/25 13:16:30;;;;;;;;;;;;;;;8.08;100.00;98530.39;1764972;81;21003;-78
2022/12/25 13:18:57;;;;;;;42.53;23.22;;;;;;;8.03;100.00;98533.02;1762066;81;20487;-79
2022/12/25 13:21:27;;;;;;;27.75;15.95;;;;;;;7.96;100.00;98529.70;1762340;81;21006;-79